Time,TemperatureF,DewpointF,PressureIn,WindDirection,WindDirectionDegrees,WindSpeedMPH,WindSpeedGustMPH,Humidity,HourlyPrecipIn,Conditions,Clouds,dailyrainin,SoftwareType,DateUTC
2013-09-15 00:02:00,55.4,43.0,29.81,ESE,112,0.0,-999.0,63,-99.99,,,0.00,Acu-Link.com,2013-09-15 07:02:00,
2013-09-15 00:17:00,55.4,43.8,29.81,ENE,67,0.0,-999.0,65,-99.99,,,0.00,Acu-Link.com,2013-09-15 07:17:00,
2013-09-15 00:32:00,55.4,44.2,29.80,East,90,0.0,-999.0,66,-99.99,,,0.00,Acu-Link.com,2013-09-15 07:32:00,
2013-09-15 00:48:00,55.4,44.2,29.80,ENE,67,0.0,-999.0,66,-99.99,,,0.00,Acu-Link.com,2013-09-15 07:48:00,
2013-09-15 01:03:00,53.6,42.9,29.80,SE,135,0.0,-999.0,67,-99.99,,,0.00,Acu-Link.com,2013-09-15 08:03:00,
2013-09-15 01:18:00,53.6,43.3,29.80,SE,135,0.0,-999.0,68,-99.99,,,0.00,Acu-Link.com,2013-09-15 08:18:00,
2013-09-15 01:34:00,53.6,44.1,29.80,ESE,112,0.0,-999.0,70,-99.99,,,0.00,Acu-Link.com,2013-09-15 08:34:00,
2013-09-15 01:49:00,53.6,44.4,29.80,East,90,0.0,-999.0,71,-99.99,,,0.00,Acu-Link.com,2013-09-15 08:49:00,
2013-09-15 02:04:00,51.8,43.8,29.80,East,90,0.0,-999.0,74,-99.99,,,0.00,Acu-Link.com,2013-09-15 09:04:00,
2013-09-15 02:19:00,51.8,43.4,29.80,ESE,112,0.0,-999.0,73,-99.99,,,0.00,Acu-Link.com,2013-09-15 09:19:00,
2013-09-15 02:34:00,51.8,43.8,29.80,SE,135,0.0,-999.0,74,-99.99,,,0.00,Acu-Link.com,2013-09-15 09:34:00,
2013-09-15 02:49:00,51.8,44.1,29.80,East,90,0.0,-999.0,75,-99.99,,,0.00,Acu-Link.com,2013-09-15 09:49:00,
2013-09-15 03:04:00,51.8,44.8,29.80,ENE,67,0.0,-999.0,77,-99.99,,,0.00,Acu-Link.com,2013-09-15 10:04:00,
2013-09-15 03:19:00,51.8,45.2,29.80,ENE,67,0.0,-999.0,78,-99.99,,,0.00,Acu-Link.com,2013-09-15 10:19:00,
2013-09-15 03:34:00,51.8,45.2,29.79,ENE,67,0.0,-999.0,78,-99.99,,,0.00,Acu-Link.com,2013-09-15 10:34:00,
2013-09-15 03:49:00,51.8,45.5,29.79,ENE,67,0.0,-999.0,79,-99.99,,,0.00,Acu-Link.com,2013-09-15 10:49:00,
2013-09-15 04:04:00,51.8,45.5,29.79,ENE,67,0.0,-999.0,79,-99.99,,,0.00,Acu-Link.com,2013-09-15 11:04:00,
2013-09-15 04:19:00,51.8,45.8,29.79,ENE,67,0.0,-999.0,80,-99.99,,,0.00,Acu-Link.com,2013-09-15 11:19:00,
2013-09-15 04:34:00,51.8,46.2,29.79,ENE,67,0.0,-999.0,81,-99.99,,,0.00,Acu-Link.com,2013-09-15 11:34:00,
2013-09-15 04:50:00,51.8,46.2,29.79,East,90,0.0,-999.0,81,-99.99,,,0.00,Acu-Link.com,2013-09-15 11:50:00,
2013-09-15 05:05:00,50.0,44.7,29.79,East,90,0.0,-999.0,82,-99.99,,,0.00,Acu-Link.com,2013-09-15 12:05:00,
2013-09-15 05:20:00,50.0,44.7,29.78,East,90,0.0,-999.0,82,-99.99,,,0.00,Acu-Link.com,2013-09-15 12:20:00,
2013-09-15 05:35:00,50.0,45.4,29.78,East,90,0.0,-999.0,84,-99.99,,,0.00,Acu-Link.com,2013-09-15 12:35:00,
2013-09-15 05:50:00,50.0,45.4,29.77,South,180,0.0,-999.0,84,-99.99,,,0.00,Acu-Link.com,2013-09-15 12:50:00,
2013-09-15 06:05:00,50.0,45.4,29.78,ESE,112,0.0,-999.0,84,-99.99,,,0.00,Acu-Link.com,2013-09-15 13:05:00,
2013-09-15 06:20:00,51.8,47.1,29.77,ESE,112,0.0,-999.0,84,-99.99,,,0.00,Acu-Link.com,2013-09-15 13:20:00,
2013-09-15 06:35:00,51.8,47.1,29.78,East,90,0.0,-999.0,84,-99.99,,,0.00,Acu-Link.com,2013-09-15 13:35:00,
2013-09-15 06:50:00,51.8,46.8,29.78,East,90,0.0,-999.0,83,-99.99,,,0.00,Acu-Link.com,2013-09-15 13:50:00,
2013-09-15 07:05:00,51.8,46.8,29.77,East,90,0.0,-999.0,83,-99.99,,,0.00,Acu-Link.com,2013-09-15 14:05:00,
2013-09-15 07:20:00,51.8,46.8,29.77,ESE,112,0.0,-999.0,83,-99.99,,,0.00,Acu-Link.com,2013-09-15 14:20:00,
2013-09-15 07:35:00,51.8,46.8,29.77,ENE,67,0.0,-999.0,83,-99.99,,,0.00,Acu-Link.com,2013-09-15 14:35:00,
2013-09-15 07:50:00,51.8,46.8,29.77,SE,135,0.0,-999.0,83,-99.99,,,0.00,Acu-Link.com,2013-09-15 14:50:00,
2013-09-15 08:05:00,53.6,48.6,29.77,South,180,0.0,-999.0,83,-99.99,,,0.00,Acu-Link.com,2013-09-15 15:05:00,
2013-09-15 08:20:00,53.6,48.6,29.76,SSE,157,0.0,-999.0,83,-99.99,,,0.00,Acu-Link.com,2013-09-15 15:20:00,
2013-09-15 08:35:00,53.6,47.9,29.76,SSW,202,0.0,-999.0,81,-99.99,,,0.00,Acu-Link.com,2013-09-15 15:35:00,
2013-09-15 08:51:00,55.4,49.7,29.76,SSW,202,0.0,-999.0,81,-99.99,,,0.00,Acu-Link.com,2013-09-15 15:51:00,
2013-09-15 09:06:00,59.0,50.7,29.76,South,180,0.0,-999.0,74,-99.99,,,0.00,Acu-Link.com,2013-09-15 16:06:00,
2013-09-15 09:21:00,60.8,52.5,29.75,SW,225,0.0,-999.0,74,-99.99,,,0.00,Acu-Link.com,2013-09-15 16:21:00,
2013-09-15 09:36:00,62.6,53.4,29.75,ESE,112,0.0,-999.0,72,-99.99,,,0.00,Acu-Link.com,2013-09-15 16:36:00,
2013-09-15 09:51:00,66.2,52.8,29.75,East,90,0.0,-999.0,62,-99.99,,,0.00,Acu-Link.com,2013-09-15 16:51:00,
2013-09-15 10:06:00,68.0,52.7,29.75,SE,135,0.0,-999.0,58,-99.99,,,0.00,Acu-Link.com,2013-09-15 17:06:00,
2013-09-15 10:21:00,69.8,52.9,29.74,ENE,67,0.0,-999.0,55,-99.99,,,0.00,Acu-Link.com,2013-09-15 17:21:00,
2013-09-15 10:36:00,73.4,54.2,29.74,East,90,0.0,-999.0,51,-99.99,,,0.00,Acu-Link.com,2013-09-15 17:36:00,
2013-09-15 10:51:00,75.2,54.7,29.73,West,270,0.0,-999.0,49,-99.99,,,0.00,Acu-Link.com,2013-09-15 17:51:00,
2013-09-15 11:06:00,78.8,55.0,29.72,ESE,112,0.0,-999.0,44,-99.99,,,0.00,Acu-Link.com,2013-09-15 18:06:00,
2013-09-15 11:21:00,77.0,53.4,29.72,ESE,112,0.0,-999.0,44,-99.99,,,0.00,Acu-Link.com,2013-09-15 18:21:00,
2013-09-15 11:37:00,78.8,53.1,29.71,South,180,0.0,-999.0,41,-99.99,,,0.00,Acu-Link.com,2013-09-15 18:37:00,
2013-09-15 11:52:00,82.4,53.5,29.71,ENE,67,0.0,-999.0,37,-99.99,,,0.00,Acu-Link.com,2013-09-15 18:52:00,
2013-09-15 12:07:00,82.4,52.0,29.70,West,270,0.0,-999.0,35,-99.99,,,0.00,Acu-Link.com,2013-09-15 19:07:00,
2013-09-15 12:22:00,82.4,49.6,29.69,SW,225,0.0,-999.0,32,-99.99,,,0.00,Acu-Link.com,2013-09-15 19:22:00,
2013-09-15 12:37:00,86.0,51.8,29.69,SE,135,0.0,-999.0,31,-99.99,,,0.00,Acu-Link.com,2013-09-15 19:37:00,
2013-09-15 12:52:00,86.0,51.8,29.68,SSE,157,0.0,-999.0,31,-99.99,,,0.00,Acu-Link.com,2013-09-15 19:52:00,
2013-09-15 13:08:00,86.0,50.9,29.68,East,90,0.0,-999.0,30,-99.99,,,0.00,Acu-Link.com,2013-09-15 20:08:00,
2013-09-15 13:23:00,86.0,50.9,29.67,ESE,112,0.0,-999.0,30,-99.99,,,0.00,Acu-Link.com,2013-09-15 20:23:00,
2013-09-15 13:38:00,86.0,50.9,29.67,ESE,112,0.0,-999.0,30,-99.99,,,0.00,Acu-Link.com,2013-09-15 20:38:00,
2013-09-15 13:53:00,87.8,50.6,29.67,SSW,202,0.0,-999.0,28,-99.99,,,0.00,Acu-Link.com,2013-09-15 20:53:00,
2013-09-15 14:08:00,87.8,49.6,29.65,SW,225,0.0,-999.0,27,-99.99,,,0.00,Acu-Link.com,2013-09-15 21:08:00,
2013-09-15 14:23:00,87.8,50.6,29.65,ENE,67,0.0,-999.0,28,-99.99,,,0.00,Acu-Link.com,2013-09-15 21:23:00,
2013-09-15 14:38:00,86.0,48.1,29.64,SW,225,0.0,-999.0,27,-99.99,,,0.00,Acu-Link.com,2013-09-15 21:38:00,
2013-09-15 14:53:00,86.0,48.1,29.63,South,180,0.0,-999.0,27,-99.99,,,0.00,Acu-Link.com,2013-09-15 21:53:00,
2013-09-15 15:08:00,87.8,46.5,29.62,SE,135,0.0,-999.0,24,-99.99,,,0.00,Acu-Link.com,2013-09-15 22:08:00,
2013-09-15 15:24:00,87.8,48.6,29.61,ESE,112,0.0,-999.0,26,-99.99,,,0.00,Acu-Link.com,2013-09-15 22:24:00,
2013-09-15 15:39:00,86.0,47.1,29.61,SW,225,0.0,-999.0,26,-99.99,,,0.00,Acu-Link.com,2013-09-15 22:39:00,
2013-09-15 15:54:00,84.2,47.5,29.61,ESE,112,0.0,-999.0,28,-99.99,,,0.00,Acu-Link.com,2013-09-15 22:54:00,
2013-09-15 16:09:00,86.0,48.1,29.60,SSE,157,0.0,-999.0,27,-99.99,,,0.00,Acu-Link.com,2013-09-15 23:09:00,
2013-09-15 16:24:00,86.0,46.1,29.60,SSE,157,0.0,-999.0,25,-99.99,,,0.00,Acu-Link.com,2013-09-15 23:24:00,
2013-09-15 16:39:00,86.0,47.1,29.59,SSE,157,0.0,-999.0,26,-99.99,,,0.00,Acu-Link.com,2013-09-15 23:39:00,
2013-09-15 16:54:00,82.4,44.0,29.59,SSE,157,0.0,-999.0,26,-99.99,,,0.00,Acu-Link.com,2013-09-15 23:54:00,
2013-09-15 17:09:00,82.4,46.9,29.58,SSE,157,0.0,-999.0,29,-99.99,,,0.00,Acu-Link.com,2013-09-16 00:09:00,
2013-09-15 17:24:00,82.4,47.8,29.57,ESE,112,0.0,-999.0,30,-99.99,,,0.00,Acu-Link.com,2013-09-16 00:24:00,
2013-09-15 17:39:00,82.4,47.8,29.58,South,180,0.0,-999.0,30,-99.99,,,0.00,Acu-Link.com,2013-09-16 00:39:00,
2013-09-15 17:54:00,82.4,46.9,29.57,South,180,0.0,-999.0,29,-99.99,,,0.00,Acu-Link.com,2013-09-16 00:54:00,
2013-09-15 18:09:00,80.6,44.5,29.57,East,90,0.0,-999.0,28,-99.99,,,0.00,Acu-Link.com,2013-09-16 01:09:00,
2013-09-15 18:25:00,78.8,44.7,29.57,ESE,112,0.0,-999.0,30,-99.99,,,0.00,Acu-Link.com,2013-09-16 01:25:00,
2013-09-15 18:40:00,78.8,45.6,29.57,ESE,112,0.0,-999.0,31,-99.99,,,0.00,Acu-Link.com,2013-09-16 01:40:00,
2013-09-15 18:55:00,77.0,46.5,29.56,South,180,0.0,-999.0,34,-99.99,,,0.00,Acu-Link.com,2013-09-16 01:55:00,
2013-09-15 19:10:00,77.0,46.5,29.56,SE,135,0.0,-999.0,34,-99.99,,,0.00,Acu-Link.com,2013-09-16 02:10:00,
2013-09-15 19:25:00,77.0,48.0,29.56,ESE,112,0.0,-999.0,36,-99.99,,,0.00,Acu-Link.com,2013-09-16 02:25:00,
2013-09-15 19:40:00,75.2,47.1,29.57,ENE,67,0.0,-999.0,37,-99.99,,,0.00,Acu-Link.com,2013-09-16 02:40:00,
2013-09-15 19:55:00,73.4,46.9,29.57,ESE,112,0.0,-999.0,39,-99.99,,,0.00,Acu-Link.com,2013-09-16 02:55:00,
2013-09-15 20:10:00,73.4,46.9,29.56,NNE,22,0.0,-999.0,39,-99.99,,,0.00,Acu-Link.com,2013-09-16 03:10:00,
2013-09-15 20:26:00,73.4,48.9,29.58,ESE,112,0.0,-999.0,42,-99.99,,,0.00,Acu-Link.com,2013-09-16 03:26:00,
2013-09-15 20:41:00,73.4,50.8,29.59,WSW,247,0.0,-999.0,45,-99.99,,,0.00,Acu-Link.com,2013-09-16 03:41:00,
2013-09-15 20:56:00,71.6,50.3,29.59,NE,45,0.0,-999.0,47,-99.99,,,0.00,Acu-Link.com,2013-09-16 03:56:00,
2013-09-15 21:11:00,69.8,50.3,29.58,NE,45,0.0,-999.0,50,-99.99,,,0.00,Acu-Link.com,2013-09-16 04:11:00,
2013-09-15 21:26:00,69.8,51.4,29.58,West,270,0.0,-999.0,52,-99.99,,,0.00,Acu-Link.com,2013-09-16 04:26:00,
2013-09-15 21:41:00,68.0,50.7,29.58,East,90,0.0,-999.0,54,-99.99,,,0.00,Acu-Link.com,2013-09-16 04:41:00,
2013-09-15 21:56:00,68.0,51.7,29.58,SSE,157,0.0,-999.0,56,-99.99,,,0.00,Acu-Link.com,2013-09-16 04:56:00,
2013-09-15 22:11:00,66.2,51.0,29.58,ESE,112,0.0,-999.0,58,-99.99,,,0.00,Acu-Link.com,2013-09-16 05:11:00,
2013-09-15 22:26:00,64.4,50.2,29.58,SE,135,0.0,-999.0,60,-99.99,,,0.00,Acu-Link.com,2013-09-16 05:26:00,
2013-09-15 22:41:00,64.4,50.7,29.58,East,90,0.0,-999.0,61,-99.99,,,0.00,Acu-Link.com,2013-09-16 05:41:00,
2013-09-15 22:56:00,64.4,52.0,29.57,WNW,292,0.0,-999.0,64,-99.99,,,0.00,Acu-Link.com,2013-09-16 05:56:00,
2013-09-15 23:11:00,64.4,52.0,29.58,North,0,0.0,-999.0,64,-99.99,,,0.00,Acu-Link.com,2013-09-16 06:11:00,
2013-09-15 23:26:00,62.6,50.7,29.57,SE,135,0.0,-999.0,65,-99.99,,,0.00,Acu-Link.com,2013-09-16 06:26:00,
2013-09-15 23:41:00,62.6,51.1,29.57,ESE,112,0.0,-999.0,66,-99.99,,,0.00,Acu-Link.com,2013-09-16 06:41:00,
2013-09-15 23:56:00,62.6,56.3,29.57,East,90,0.0,-999.0,80,-99.99,,,0.01,Acu-Link.com,2013-09-16 06:56:00,